sensor_id;sensor_type;location;lat;lon;timestamp;pressure;altitude;pressure_sealevel;temperature;humidity
58843;BME280;44614;54.356;10.100;2023-05-03T00:00:23;102574.34;;;3.94;74.75
58843;BME280;44614;54.356;10.100;2023-05-03T00:02:50;102571.31;;;3.87;78.32
58843;BME280;44614;54.356;10.100;2023-05-03T00:05:18;102576.75;;;3.87;76.15
58843;BME280;44614;54.356;10.100;2023-05-03T00:07:45;102579.47;;;3.87;74.80
58843;BME280;44614;54.356;10.100;2023-05-03T00:10:11;102580.47;;;3.86;74.29
58843;BME280;44614;54.356;10.100;2023-05-03T00:12:43;102584.31;;;3.84;73.88
58843;BME280;44614;54.356;10.100;2023-05-03T00:15:09;102571.84;;;3.81;73.85
58843;BME280;44614;54.356;10.100;2023-05-03T00:17:36;102540.91;;;3.63;73.62
58843;BME280;44614;54.356;10.100;2023-05-03T00:20:02;102583.72;;;3.80;73.53
58843;BME280;44614;54.356;10.100;2023-05-03T00:22:29;102584.88;;;3.78;73.75
58843;BME280;44614;54.356;10.100;2023-05-03T00:24:54;102578.13;;;3.72;73.28
58843;BME280;44614;54.356;10.100;2023-05-03T00:27:20;102586.13;;;3.74;73.52
58843;BME280;44614;54.356;10.100;2023-05-03T00:29:46;102588.25;;;3.70;74.36
58843;BME280;44614;54.356;10.100;2023-05-03T00:32:11;102588.53;;;3.67;75.14
58843;BME280;44614;54.356;10.100;2023-05-03T00:34:37;102527.31;;;3.32;74.50
58843;BME280;44614;54.356;10.100;2023-05-03T00:37:02;102584.50;;;3.61;75.07
58843;BME280;44614;54.356;10.100;2023-05-03T00:39:30;102584.91;;;3.57;74.72
58843;BME280;44614;54.356;10.100;2023-05-03T00:41:59;102585.16;;;3.54;75.42
58843;BME280;44614;54.356;10.100;2023-05-03T00:44:25;102583.13;;;3.46;74.78
58843;BME280;44614;54.356;10.100;2023-05-03T00:46:50;102591.88;;;3.50;74.93
58843;BME280;44614;54.356;10.100;2023-05-03T00:49:16;102585.25;;;3.42;74.77
58843;BME280;44614;54.356;10.100;2023-05-03T00:51:42;102597.25;;;3.40;75.00
58843;BME280;44614;54.356;10.100;2023-05-03T00:54:08;102603.41;;;3.42;75.00
58843;BME280;44614;54.356;10.100;2023-05-03T00:56:33;102594.91;;;3.35;75.39
58843;BME280;44614;54.356;10.100;2023-05-03T00:59:00;102601.09;;;3.37;75.80
58843;BME280;44614;54.356;10.100;2023-05-03T01:01:26;102598.78;;;3.33;76.83
58843;BME280;44614;54.356;10.100;2023-05-03T01:03:52;102593.59;;;3.30;76.80
58843;BME280;44614;54.356;10.100;2023-05-03T01:06:32;102587.31;;;3.29;76.06
58843;BME280;44614;54.356;10.100;2023-05-03T01:09:11;102590.03;;;3.29;76.19
58843;BME280;44614;54.356;10.100;2023-05-03T01:11:54;102597.56;;;3.26;76.06
58843;BME280;44614;54.356;10.100;2023-05-03T01:14:32;102594.41;;;3.21;75.56
58843;BME280;44614;54.356;10.100;2023-05-03T01:17:08;102594.66;;;3.17;75.75
58843;BME280;44614;54.356;10.100;2023-05-03T01:19:36;102593.91;;;3.15;75.58
58843;BME280;44614;54.356;10.100;2023-05-03T01:22:21;102598.66;;;3.13;75.74
58843;BME280;44614;54.356;10.100;2023-05-03T01:25:00;102590.75;;;3.10;76.33
58843;BME280;44614;54.356;10.100;2023-05-03T01:27:27;102602.63;;;3.09;76.39
58843;BME280;44614;54.356;10.100;2023-05-03T01:29:52;102593.72;;;3.07;76.19
58843;BME280;44614;54.356;10.100;2023-05-03T01:32:23;102605.69;;;3.05;76.01
58843;BME280;44614;54.356;10.100;2023-05-03T01:35:25;102601.41;;;3.02;75.96
58843;BME280;44614;54.356;10.100;2023-05-03T01:37:54;102602.78;;;2.97;76.36
58843;BME280;44614;54.356;10.100;2023-05-03T01:40:21;102604.03;;;2.92;76.17
58843;BME280;44614;54.356;10.100;2023-05-03T01:42:47;102601.97;;;2.85;76.57
58843;BME280;44614;54.356;10.100;2023-05-03T01:45:14;102612.72;;;2.86;76.46
58843;BME280;44614;54.356;10.100;2023-05-03T01:47:40;102610.25;;;2.83;76.27
58843;BME280;44614;54.356;10.100;2023-05-03T01:50:05;102616.94;;;2.79;77.07
58843;BME280;44614;54.356;10.100;2023-05-03T01:52:31;102618.28;;;2.74;77.33
58843;BME280;44614;54.356;10.100;2023-05-03T01:54:56;102614.31;;;2.78;77.25
58843;BME280;44614;54.356;10.100;2023-05-03T01:57:21;102602.75;;;2.76;77.17
58843;BME280;44614;54.356;10.100;2023-05-03T01:59:47;102609.91;;;2.77;77.21
58843;BME280;44614;54.356;10.100;2023-05-03T02:02:13;102611.75;;;2.76;76.93
58843;BME280;44614;54.356;10.100;2023-05-03T02:04:38;102607.19;;;2.77;77.51
58843;BME280;44614;54.356;10.100;2023-05-03T02:07:03;102608.28;;;2.74;77.04
58843;BME280;44614;54.356;10.100;2023-05-03T02:09:28;102613.72;;;2.74;77.22
58843;BME280;44614;54.356;10.100;2023-05-03T02:11:54;102621.13;;;2.72;77.04
58843;BME280;44614;54.356;10.100;2023-05-03T02:14:19;102618.69;;;2.69;77.09
58843;BME280;44614;54.356;10.100;2023-05-03T02:16:44;102622.50;;;2.66;77.37
58843;BME280;44614;54.356;10.100;2023-05-03T02:19:10;102581.88;;;2.44;77.12
58843;BME280;44614;54.356;10.100;2023-05-03T02:21:36;102624.75;;;2.61;77.56
58843;BME280;44614;54.356;10.100;2023-05-03T02:24:01;102629.56;;;2.58;77.22
58843;BME280;44614;54.356;10.100;2023-05-03T02:26:27;102639.56;;;2.57;77.28
58843;BME280;44614;54.356;10.100;2023-05-03T02:28:53;102630.66;;;2.55;77.48
58843;BME280;44614;54.356;10.100;2023-05-03T02:31:20;102633.38;;;2.55;77.12
58843;BME280;44614;54.356;10.100;2023-05-03T02:33:45;102630.94;;;2.52;77.41
58843;BME280;44614;54.356;10.100;2023-05-03T02:36:10;102629.47;;;2.48;77.15
58843;BME280;44614;54.356;10.100;2023-05-03T02:38:36;102637.00;;;2.44;77.51
58843;BME280;44614;54.356;10.100;2023-05-03T02:41:01;102631.94;;;2.40;77.88
58843;BME280;44614;54.356;10.100;2023-05-03T02:43:26;102595.38;;;2.12;77.98
58843;BME280;44614;54.356;10.100;2023-05-03T02:45:52;102632.56;;;2.32;78.16
58843;BME280;44614;54.356;10.100;2023-05-03T02:48:17;102630.84;;;2.31;78.09
58843;BME280;44614;54.356;10.100;2023-05-03T02:50:42;102629.00;;;2.32;78.58
58843;BME280;44614;54.356;10.100;2023-05-03T02:53:08;102633.78;;;2.28;77.91
58843;BME280;44614;54.356;10.100;2023-05-03T02:55:33;102618.91;;;2.23;78.12
58843;BME280;44614;54.356;10.100;2023-05-03T02:57:58;102615.19;;;2.24;77.98
58843;BME280;44614;54.356;10.100;2023-05-03T03:00:24;102629.38;;;2.27;78.17
58843;BME280;44614;54.356;10.100;2023-05-03T03:02:49;102631.47;;;2.24;78.78
58843;BME280;44614;54.356;10.100;2023-05-03T03:05:15;102631.72;;;2.20;79.02
58843;BME280;44614;54.356;10.100;2023-05-03T03:07:40;102615.44;;;2.09;79.22
58843;BME280;44614;54.356;10.100;2023-05-03T03:10:06;102639.22;;;2.17;78.99
58843;BME280;44614;54.356;10.100;2023-05-03T03:12:34;102637.66;;;2.14;78.99
58843;BME280;44614;54.356;10.100;2023-05-03T03:14:59;102637.03;;;2.11;79.23
58843;BME280;44614;54.356;10.100;2023-05-03T03:17:25;102635.56;;;2.07;79.59
58843;BME280;44614;54.356;10.100;2023-05-03T03:19:50;102635.78;;;2.04;79.89
58843;BME280;44614;54.356;10.100;2023-05-03T03:22:16;102626.91;;;2.02;80.15
58843;BME280;44614;54.356;10.100;2023-05-03T03:24:41;102637.88;;;2.00;80.50
58843;BME280;44614;54.356;10.100;2023-05-03T03:27:06;102636.19;;;1.99;80.55
58843;BME280;44614;54.356;10.100;2023-05-03T03:29:33;102636.03;;;2.01;80.25
58843;BME280;44614;54.356;10.100;2023-05-03T03:31:59;102637.88;;;2.00;80.28
58843;BME280;44614;54.356;10.100;2023-05-03T03:34:24;102616.44;;;1.86;80.37
58843;BME280;44614;54.356;10.100;2023-05-03T03:36:50;102636.19;;;1.99;80.15
58843;BME280;44614;54.356;10.100;2023-05-03T03:39:15;102596.38;;;1.77;80.10
58843;BME280;44614;54.356;10.100;2023-05-03T03:41:41;102627.28;;;1.97;80.23
58843;BME280;44614;54.356;10.100;2023-05-03T03:44:06;102635.41;;;1.97;80.24
58843;BME280;44614;54.356;10.100;2023-05-03T03:46:31;102638.13;;;1.97;80.28
58843;BME280;44614;54.356;10.100;2023-05-03T03:48:57;102626.91;;;1.90;80.18
58843;BME280;44614;54.356;10.100;2023-05-03T03:51:22;102643.56;;;1.97;80.10
58843;BME280;44614;54.356;10.100;2023-05-03T03:53:47;102641.59;;;1.99;80.25
58843;BME280;44614;54.356;10.100;2023-05-03T03:56:13;102636.28;;;1.98;80.09
58843;BME280;44614;54.356;10.100;2023-05-03T03:58:38;102641.84;;;1.96;79.96
58843;BME280;44614;54.356;10.100;2023-05-03T04:01:04;102637.41;;;1.95;80.43
58843;BME280;44614;54.356;10.100;2023-05-03T04:03:29;102643.69;;;1.95;81.25
58843;BME280;44614;54.356;10.100;2023-05-03T04:05:55;102639.84;;;1.98;81.11
58843;BME280;44614;54.356;10.100;2023-05-03T04:08:20;102630.63;;;2.01;80.79
58843;BME280;44614;54.356;10.100;2023-05-03T04:10:45;102629.75;;;2.00;81.13
58843;BME280;44614;54.356;10.100;2023-05-03T04:13:11;102603.28;;;1.81;81.35
58843;BME280;44614;54.356;10.100;2023-05-03T04:15:36;102637.88;;;2.00;81.48
58843;BME280;44614;54.356;10.100;2023-05-03T04:18:01;102638.75;;;2.01;81.32
58843;BME280;44614;54.356;10.100;2023-05-03T04:20:27;102641.31;;;2.02;81.13
58843;BME280;44614;54.356;10.100;2023-05-03T04:22:53;102612.03;;;1.85;82.07
58843;BME280;44614;54.356;10.100;2023-05-03T04:25:19;102641.84;;;2.07;82.46
58843;BME280;44614;54.356;10.100;2023-05-03T04:27:44;102643.56;;;2.08;82.73
58843;BME280;44614;54.356;10.100;2023-05-03T04:30:10;102656.97;;;2.10;82.69
58843;BME280;44614;54.356;10.100;2023-05-03T04:32:39;102645.88;;;2.13;82.60
58843;BME280;44614;54.356;10.100;2023-05-03T04:35:05;102645.50;;;2.17;82.82
58843;BME280;44614;54.356;10.100;2023-05-03T04:37:34;102651.44;;;2.23;82.84
58843;BME280;44614;54.356;10.100;2023-05-03T04:39:59;102655.63;;;2.27;83.62
58843;BME280;44614;54.356;10.100;2023-05-03T04:42:25;102656.34;;;2.29;83.54
58843;BME280;44614;54.356;10.100;2023-05-03T04:44:51;102662.38;;;2.32;83.39
58843;BME280;44614;54.356;10.100;2023-05-03T04:47:16;102655.63;;;2.38;84.50
58843;BME280;44614;54.356;10.100;2023-05-03T04:49:42;102651.66;;;2.42;85.51
58843;BME280;44614;54.356;10.100;2023-05-03T04:52:07;102660.28;;;2.47;86.59
58843;BME280;44614;54.356;10.100;2023-05-03T04:54:34;102668.16;;;2.50;86.92
58843;BME280;44614;54.356;10.100;2023-05-03T04:57:00;102661.50;;;2.54;86.74
58843;BME280;44614;54.356;10.100;2023-05-03T04:59:25;102662.84;;;2.60;87.38
58843;BME280;44614;54.356;10.100;2023-05-03T05:01:50;102646.22;;;2.53;87.09
58843;BME280;44614;54.356;10.100;2023-05-03T05:04:16;102663.78;;;2.70;87.84
58843;BME280;44614;54.356;10.100;2023-05-03T05:06:41;102677.72;;;2.77;87.54
58843;BME280;44614;54.356;10.100;2023-05-03T05:09:19;102668.34;;;2.81;87.78
58843;BME280;44614;54.356;10.100;2023-05-03T05:11:45;102663.38;;;2.86;88.59
58843;BME280;44614;54.356;10.100;2023-05-03T05:14:10;102671.03;;;2.92;88.36
58843;BME280;44614;54.356;10.100;2023-05-03T05:16:36;102569.84;;;2.37;87.19
58843;BME280;44614;54.356;10.100;2023-05-03T05:19:01;102673.44;;;3.06;87.20
58843;BME280;44614;54.356;10.100;2023-05-03T05:21:28;102662.59;;;3.06;88.04
58843;BME280;44614;54.356;10.100;2023-05-03T05:23:53;102674.59;;;3.25;88.73
58843;BME280;44614;54.356;10.100;2023-05-03T05:26:18;102658.16;;;3.26;88.71
58843;BME280;44614;54.356;10.100;2023-05-03T05:28:44;102678.19;;;3.46;89.34
58843;BME280;44614;54.356;10.100;2023-05-03T05:31:09;102668.38;;;3.55;89.41
58843;BME280;44614;54.356;10.100;2023-05-03T05:33:35;102684.28;;;3.80;88.13
58843;BME280;44614;54.356;10.100;2023-05-03T05:36:00;102687.25;;;3.98;88.04
58843;BME280;44614;54.356;10.100;2023-05-03T05:38:25;102687.03;;;4.11;87.98
58843;BME280;44614;54.356;10.100;2023-05-03T05:40:52;102639.78;;;4.02;86.62
58843;BME280;44614;54.356;10.100;2023-05-03T05:43:17;102675.69;;;4.36;86.50
58843;BME280;44614;54.356;10.100;2023-05-03T05:45:42;102687.50;;;4.56;87.63
58843;BME280;44614;54.356;10.100;2023-05-03T05:48:08;102681.22;;;4.66;86.26
58843;BME280;44614;54.356;10.100;2023-05-03T05:50:33;102689.31;;;4.96;85.96
58843;BME280;44614;54.356;10.100;2023-05-03T05:52:58;102696.47;;;5.07;85.33
58843;BME280;44614;54.356;10.100;2023-05-03T05:55:24;102698.06;;;5.29;84.41
58843;BME280;44614;54.356;10.100;2023-05-03T05:57:49;102675.84;;;5.33;83.96
58843;BME280;44614;54.356;10.100;2023-05-03T06:00:14;102704.50;;;5.67;83.75
58843;BME280;44614;54.356;10.100;2023-05-03T06:02:41;102694.59;;;5.75;83.13
58843;BME280;44614;54.356;10.100;2023-05-03T06:05:07;102698.72;;;5.89;82.69
58843;BME280;44614;54.356;10.100;2023-05-03T06:07:33;102700.31;;;6.01;82.53
58843;BME280;44614;54.356;10.100;2023-05-03T06:09:58;102699.22;;;6.22;82.05
58843;BME280;44614;54.356;10.100;2023-05-03T06:12:24;102708.50;;;6.39;80.93
58843;BME280;44614;54.356;10.100;2023-05-03T06:14:49;102691.63;;;6.53;80.37
58843;BME280;44614;54.356;10.100;2023-05-03T06:17:14;102696.53;;;6.77;80.14
58843;BME280;44614;54.356;10.100;2023-05-03T06:19:40;102695.47;;;6.88;79.46
58843;BME280;44614;54.356;10.100;2023-05-03T06:22:06;102692.50;;;7.17;78.79
58843;BME280;44614;54.356;10.100;2023-05-03T06:24:31;102704.16;;;7.37;77.62
58843;BME280;44614;54.356;10.100;2023-05-03T06:26:57;102703.38;;;7.44;77.59
58843;BME280;44614;54.356;10.100;2023-05-03T06:29:23;102695.88;;;7.46;77.66
58843;BME280;44614;54.356;10.100;2023-05-03T06:31:48;102708.56;;;7.73;77.44
58843;BME280;44614;54.356;10.100;2023-05-03T06:34:18;102717.38;;;7.85;76.46
58843;BME280;44614;54.356;10.100;2023-05-03T06:36:44;102710.25;;;7.92;76.47
58843;BME280;44614;54.356;10.100;2023-05-03T06:39:09;102698.06;;;8.13;76.50
58843;BME280;44614;54.356;10.100;2023-05-03T06:41:35;102679.66;;;8.23;75.38
58843;BME280;44614;54.356;10.100;2023-05-03T06:44:00;102714.53;;;8.47;74.78
58843;BME280;44614;54.356;10.100;2023-05-03T06:46:26;102712.84;;;8.54;74.56
58843;BME280;44614;54.356;10.100;2023-05-03T06:48:51;102705.19;;;8.66;74.84
58843;BME280;44614;54.356;10.100;2023-05-03T06:51:21;102705.84;;;9.02;74.24
58843;BME280;44614;54.356;10.100;2023-05-03T06:53:52;102716.72;;;9.36;73.78
58843;BME280;44614;54.356;10.100;2023-05-03T06:56:17;102705.03;;;9.18;72.56
58843;BME280;44614;54.356;10.100;2023-05-03T06:58:42;102701.94;;;9.05;73.35
58843;BME280;44614;54.356;10.100;2023-05-03T07:01:08;102695.53;;;8.96;73.50
58843;BME280;44614;54.356;10.100;2023-05-03T07:03:33;102703.28;;;9.00;73.92
58843;BME280;44614;54.356;10.100;2023-05-03T07:05:58;102711.50;;;9.00;73.80
58843;BME280;44614;54.356;10.100;2023-05-03T07:08:24;102712.19;;;9.11;73.50
58843;BME280;44614;54.356;10.100;2023-05-03T07:10:49;102703.44;;;9.07;73.20
58843;BME280;44614;54.356;10.100;2023-05-03T07:13:14;102704.31;;;9.08;73.13
58843;BME280;44614;54.356;10.100;2023-05-03T07:15:40;102692.66;;;9.06;73.64
58843;BME280;44614;54.356;10.100;2023-05-03T07:18:05;102702.81;;;9.46;72.15
58843;BME280;44614;54.356;10.100;2023-05-03T07:20:31;102699.03;;;9.88;71.39
58843;BME280;44614;54.356;10.100;2023-05-03T07:22:56;102688.19;;;10.19;69.61
58843;BME280;44614;54.356;10.100;2023-05-03T07:25:22;102696.06;;;10.30;68.73
58843;BME280;44614;54.356;10.100;2023-05-03T07:27:47;102681.09;;;10.41;67.50
58843;BME280;44614;54.356;10.100;2023-05-03T07:30:13;102702.00;;;10.89;67.28
58843;BME280;44614;54.356;10.100;2023-05-03T07:32:38;102694.84;;;11.11;65.59
58843;BME280;44614;54.356;10.100;2023-05-03T07:35:04;102666.84;;;11.08;66.08
58843;BME280;44614;54.356;10.100;2023-05-03T07:37:29;102688.81;;;11.16;66.23
58843;BME280;44614;54.356;10.100;2023-05-03T07:39:55;102680.72;;;10.83;64.93
58843;BME280;44614;54.356;10.100;2023-05-03T07:42:20;102707.44;;;10.66;66.20
58843;BME280;44614;54.356;10.100;2023-05-03T07:44:46;102706.31;;;10.44;67.19
58843;BME280;44614;54.356;10.100;2023-05-03T07:47:11;102698.66;;;10.23;67.81
58843;BME280;44614;54.356;10.100;2023-05-03T07:49:37;102717.69;;;10.17;68.44
58843;BME280;44614;54.356;10.100;2023-05-03T07:52:02;102707.91;;;10.14;67.19
58843;BME280;44614;54.356;10.100;2023-05-03T07:54:27;102705.53;;;10.03;66.85
58843;BME280;44614;54.356;10.100;2023-05-03T07:56:53;102713.63;;;10.05;65.96
58843;BME280;44614;54.356;10.100;2023-05-03T07:59:18;102703.56;;;10.44;65.52
58843;BME280;44614;54.356;10.100;2023-05-03T08:01:43;102710.34;;;11.04;65.11
58843;BME280;44614;54.356;10.100;2023-05-03T08:04:09;102700.78;;;11.46;63.67
58843;BME280;44614;54.356;10.100;2023-05-03T08:06:34;102708.06;;;11.85;62.64
58843;BME280;44614;54.356;10.100;2023-05-03T08:08:59;102700.31;;;12.03;59.29
58843;BME280;44614;54.356;10.100;2023-05-03T08:11:26;102671.63;;;11.98;62.63
58843;BME280;44614;54.356;10.100;2023-05-03T08:13:52;102716.06;;;12.09;62.97
58843;BME280;44614;54.356;10.100;2023-05-03T08:16:18;102714.25;;;11.87;62.98
58843;BME280;44614;54.356;10.100;2023-05-03T08:18:43;102707.56;;;11.58;61.55
58843;BME280;44614;54.356;10.100;2023-05-03T08:21:10;102706.47;;;11.44;64.31
58843;BME280;44614;54.356;10.100;2023-05-03T08:23:36;102710.38;;;11.27;63.00
58843;BME280;44614;54.356;10.100;2023-05-03T08:26:01;102681.06;;;10.88;62.65
58843;BME280;44614;54.356;10.100;2023-05-03T08:28:28;102716.50;;;11.06;62.99
58843;BME280;44614;54.356;10.100;2023-05-03T08:30:54;102714.22;;;10.87;62.24
58843;BME280;44614;54.356;10.100;2023-05-03T08:33:20;102730.75;;;10.79;60.53
58843;BME280;44614;54.356;10.100;2023-05-03T08:35:46;102717.94;;;10.63;63.35
58843;BME280;44614;54.356;10.100;2023-05-03T08:38:11;102730.66;;;10.56;63.25
58843;BME280;44614;54.356;10.100;2023-05-03T08:40:38;102725.00;;;10.57;63.38
58843;BME280;44614;54.356;10.100;2023-05-03T08:43:08;102732.72;;;10.62;63.19
58843;BME280;44614;54.356;10.100;2023-05-03T08:45:34;102719.69;;;10.56;62.30
58843;BME280;44614;54.356;10.100;2023-05-03T08:48:00;102737.53;;;10.60;62.29
58843;BME280;44614;54.356;10.100;2023-05-03T08:50:28;102725.31;;;10.62;62.49
58843;BME280;44614;54.356;10.100;2023-05-03T08:52:55;102715.16;;;10.71;62.18
58843;BME280;44614;54.356;10.100;2023-05-03T08:55:20;102708.09;;;10.77;62.25
58843;BME280;44614;54.356;10.100;2023-05-03T08:57:46;102714.41;;;10.85;61.65
58843;BME280;44614;54.356;10.100;2023-05-03T09:00:11;102724.31;;;10.94;60.34
58843;BME280;44614;54.356;10.100;2023-05-03T09:02:38;102730.44;;;11.05;60.75
58843;BME280;44614;54.356;10.100;2023-05-03T09:07:39;102732.63;;;11.40;61.10
58843;BME280;44614;54.356;10.100;2023-05-03T09:10:21;102692.22;;;11.18;58.66
58843;BME280;44614;54.356;10.100;2023-05-03T09:12:47;102724.84;;;11.21;60.55
58843;BME280;44614;54.356;10.100;2023-05-03T09:15:20;102733.78;;;11.23;60.89
58843;BME280;44614;54.356;10.100;2023-05-03T09:18:05;102735.78;;;11.29;59.70
58843;BME280;44614;54.356;10.100;2023-05-03T09:20:35;102728.59;;;11.28;60.64
58843;BME280;44614;54.356;10.100;2023-05-03T09:23:00;102720.59;;;11.18;60.32
58843;BME280;44614;54.356;10.100;2023-05-03T09:25:49;102686.66;;;11.03;57.02
58843;BME280;44614;54.356;10.100;2023-05-03T09:28:16;102718.69;;;11.19;59.92
58843;BME280;44614;54.356;10.100;2023-05-03T09:30:43;102726.03;;;11.50;60.20
58843;BME280;44614;54.356;10.100;2023-05-03T09:33:09;102734.78;;;11.76;57.09
58843;BME280;44614;54.356;10.100;2023-05-03T09:35:36;102727.63;;;11.90;58.29
58843;BME280;44614;54.356;10.100;2023-05-03T09:38:02;102721.25;;;11.89;56.09
58843;BME280;44614;54.356;10.100;2023-05-03T09:40:27;102728.28;;;11.69;58.18
58843;BME280;44614;54.356;10.100;2023-05-03T09:43:11;102735.44;;;11.55;57.64
58843;BME280;44614;54.356;10.100;2023-05-03T09:45:38;102734.94;;;11.52;59.31
58843;BME280;44614;54.356;10.100;2023-05-03T09:48:05;102737.41;;;11.46;58.32
58843;BME280;44614;54.356;10.100;2023-05-03T09:50:35;102744.19;;;11.36;59.35
58843;BME280;44614;54.356;10.100;2023-05-03T09:53:05;102735.13;;;11.27;58.87
58843;BME280;44614;54.356;10.100;2023-05-03T09:55:37;102736.19;;;11.18;59.63
58843;BME280;44614;54.356;10.100;2023-05-03T09:58:04;102739.94;;;11.25;59.76
58843;BME280;44614;54.356;10.100;2023-05-03T10:00:40;102740.69;;;11.19;58.87
58843;BME280;44614;54.356;10.100;2023-05-03T10:03:08;102737.53;;;11.30;59.82
58843;BME280;44614;54.356;10.100;2023-05-03T10:05:48;102736.19;;;11.26;59.74
58843;BME280;44614;54.356;10.100;2023-05-03T10:08:23;102732.03;;;11.30;59.36
58843;BME280;44614;54.356;10.100;2023-05-03T10:10:50;102736.25;;;11.41;59.98
58843;BME280;44614;54.356;10.100;2023-05-03T10:13:20;102722.78;;;11.23;59.85
58843;BME280;44614;54.356;10.100;2023-05-03T10:15:51;102726.88;;;11.50;59.64
58843;BME280;44614;54.356;10.100;2023-05-03T10:18:19;102731.66;;;11.79;59.04
58843;BME280;44614;54.356;10.100;2023-05-03T10:20:53;102719.03;;;12.23;58.38
58843;BME280;44614;54.356;10.100;2023-05-03T10:23:20;102724.16;;;12.55;57.39
58843;BME280;44614;54.356;10.100;2023-05-03T10:28:32;102726.75;;;12.72;56.05
58843;BME280;44614;54.356;10.100;2023-05-03T10:30:57;102710.13;;;12.65;56.95
58843;BME280;44614;54.356;10.100;2023-05-03T10:33:32;102727.97;;;12.69;57.18
58843;BME280;44614;54.356;10.100;2023-05-03T10:36:05;102690.34;;;12.61;57.31
58843;BME280;44614;54.356;10.100;2023-05-03T10:38:31;102709.34;;;12.71;56.78
58843;BME280;44614;54.356;10.100;2023-05-03T10:40:58;102720.56;;;12.69;57.12
58843;BME280;44614;54.356;10.100;2023-05-03T10:48:22;102721.03;;;12.58;57.22
58843;BME280;44614;54.356;10.100;2023-05-03T10:50:48;102720.66;;;12.61;56.58
58843;BME280;44614;54.356;10.100;2023-05-03T10:56:02;102717.16;;;12.53;57.17
58843;BME280;44614;54.356;10.100;2023-05-03T10:58:35;102707.72;;;12.62;56.74
58843;BME280;44614;54.356;10.100;2023-05-03T11:01:02;102727.59;;;12.57;56.01
58843;BME280;44614;54.356;10.100;2023-05-03T11:03:34;102721.97;;;12.36;57.18
58843;BME280;44614;54.356;10.100;2023-05-03T11:06:03;102725.13;;;12.48;56.68
58843;BME280;44614;54.356;10.100;2023-05-03T11:08:28;102717.81;;;12.40;56.89
58843;BME280;44614;54.356;10.100;2023-05-03T11:10:57;102725.31;;;12.61;56.51
58843;BME280;44614;54.356;10.100;2023-05-03T11:13:26;102720.44;;;12.78;55.88
58843;BME280;44614;54.356;10.100;2023-05-03T11:15:53;102727.97;;;12.69;54.79
58843;BME280;44614;54.356;10.100;2023-05-03T11:18:23;102723.78;;;12.73;55.35
58843;BME280;44614;54.356;10.100;2023-05-03T11:20:51;102732.63;;;12.83;55.03
58843;BME280;44614;54.356;10.100;2023-05-03T11:23:17;102727.00;;;12.91;55.07
58843;BME280;44614;54.356;10.100;2023-05-03T11:25:43;102715.72;;;13.08;54.53
58843;BME280;44614;54.356;10.100;2023-05-03T11:28:08;102719.81;;;13.27;54.15
58843;BME280;44614;54.356;10.100;2023-05-03T11:30:34;102716.59;;;13.45;54.41
58843;BME280;44614;54.356;10.100;2023-05-03T11:33:01;102704.38;;;13.54;50.99
58843;BME280;44614;54.356;10.100;2023-05-03T11:35:30;102692.47;;;13.53;54.25
58843;BME280;44614;54.356;10.100;2023-05-03T11:37:56;102681.91;;;13.35;54.13
58843;BME280;44614;54.356;10.100;2023-05-03T11:40:21;102708.84;;;13.33;52.92
58843;BME280;44614;54.356;10.100;2023-05-03T11:45:18;102708.75;;;13.27;54.67
58843;BME280;44614;54.356;10.100;2023-05-03T11:47:45;102712.50;;;13.04;53.47
58843;BME280;44614;54.356;10.100;2023-05-03T11:50:11;102714.66;;;12.73;54.89
58843;BME280;44614;54.356;10.100;2023-05-03T11:52:37;102705.06;;;12.68;55.46
58843;BME280;44614;54.356;10.100;2023-05-03T11:55:03;102714.56;;;12.66;51.52
58843;BME280;44614;54.356;10.100;2023-05-03T11:57:30;102672.38;;;12.51;54.94
58843;BME280;44614;54.356;10.100;2023-05-03T12:00:14;102709.84;;;12.75;54.97
58843;BME280;44614;54.356;10.100;2023-05-03T12:02:42;102719.50;;;12.85;54.68
58843;BME280;44614;54.356;10.100;2023-05-03T12:05:08;102652.09;;;12.37;54.39
58843;BME280;44614;54.356;10.100;2023-05-03T12:07:33;102683.97;;;12.61;54.49
58843;BME280;44614;54.356;10.100;2023-05-03T12:09:59;102720.75;;;12.68;54.48
58843;BME280;44614;54.356;10.100;2023-05-03T12:12:26;102714.78;;;12.64;55.17
58843;BME280;44614;54.356;10.100;2023-05-03T12:14:58;102716.84;;;12.62;53.75
58843;BME280;44614;54.356;10.100;2023-05-03T12:17:38;102713.81;;;12.42;54.21
58843;BME280;44614;54.356;10.100;2023-05-03T12:20:17;102718.88;;;12.54;55.48
58843;BME280;44614;54.356;10.100;2023-05-03T12:22:47;102687.06;;;12.36;55.42
58843;BME280;44614;54.356;10.100;2023-05-03T12:25:13;102715.72;;;12.57;55.46
58843;BME280;44614;54.356;10.100;2023-05-03T12:27:39;102643.44;;;12.10;55.36
58843;BME280;44614;54.356;10.100;2023-05-03T12:30:04;102708.78;;;12.61;54.89
58843;BME280;44614;54.356;10.100;2023-05-03T12:32:30;102722.66;;;12.53;53.94
58843;BME280;44614;54.356;10.100;2023-05-03T12:34:55;102718.22;;;12.52;54.23
58843;BME280;44614;54.356;10.100;2023-05-03T12:37:21;102715.72;;;12.72;54.23
58843;BME280;44614;54.356;10.100;2023-05-03T12:39:46;102709.69;;;12.98;53.62
58843;BME280;44614;54.356;10.100;2023-05-03T12:42:11;102708.97;;;13.25;53.37
58843;BME280;44614;54.356;10.100;2023-05-03T12:44:40;102693.28;;;13.26;53.17
58843;BME280;44614;54.356;10.100;2023-05-03T12:47:06;102699.44;;;13.49;52.88
58843;BME280;44614;54.356;10.100;2023-05-03T12:49:31;102704.25;;;13.40;52.84
58843;BME280;44614;54.356;10.100;2023-05-03T12:51:57;102702.41;;;13.26;52.94
58843;BME280;44614;54.356;10.100;2023-05-03T12:54:25;102702.03;;;13.14;52.69
58843;BME280;44614;54.356;10.100;2023-05-03T12:56:50;102705.88;;;12.99;53.31
58843;BME280;44614;54.356;10.100;2023-05-03T12:59:15;102697.13;;;12.95;53.04